sensor_id;sensor_type;location;lat;lon;timestamp;temperature;humidity
23475;DHT22;11910;52.086;21.066;2023-05-08T00:01:49;5.60;92.80
23475;DHT22;11910;52.086;21.066;2023-05-08T00:04:14;5.60;92.40
23475;DHT22;11910;52.086;21.066;2023-05-08T00:06:40;5.40;93.00
23475;DHT22;11910;52.086;21.066;2023-05-08T00:09:06;5.40;93.40
23475;DHT22;11910;52.086;21.066;2023-05-08T00:11:32;5.20;93.50
23475;DHT22;11910;52.086;21.066;2023-05-08T00:13:57;5.20;94.00
23475;DHT22;11910;52.086;21.066;2023-05-08T00:16:23;5.30;93.70
23475;DHT22;11910;52.086;21.066;2023-05-08T00:18:48;5.30;93.40
23475;DHT22;11910;52.086;21.066;2023-05-08T00:21:14;5.40;93.40
23475;DHT22;11910;52.086;21.066;2023-05-08T00:23:40;5.40;93.10
23475;DHT22;11910;52.086;21.066;2023-05-08T00:26:05;5.40;93.20
23475;DHT22;11910;52.086;21.066;2023-05-08T00:28:31;5.40;93.10
23475;DHT22;11910;52.086;21.066;2023-05-08T00:30:59;5.20;93.50
23475;DHT22;11910;52.086;21.066;2023-05-08T00:33:26;5.20;93.70
23475;DHT22;11910;52.086;21.066;2023-05-08T00:35:58;5.20;93.50
23475;DHT22;11910;52.086;21.066;2023-05-08T00:38:24;5.30;93.50
23475;DHT22;11910;52.086;21.066;2023-05-08T00:40:49;5.30;92.90
23475;DHT22;11910;52.086;21.066;2023-05-08T00:43:15;5.30;93.20
23475;DHT22;11910;52.086;21.066;2023-05-08T00:45:40;5.20;93.10
23475;DHT22;11910;52.086;21.066;2023-05-08T00:48:06;5.10;93.50
23475;DHT22;11910;52.086;21.066;2023-05-08T00:50:32;5.10;93.30
23475;DHT22;11910;52.086;21.066;2023-05-08T00:52:59;5.10;93.30
23475;DHT22;11910;52.086;21.066;2023-05-08T00:55:28;5.20;93.30
23475;DHT22;11910;52.086;21.066;2023-05-08T00:57:54;5.20;92.70
23475;DHT22;11910;52.086;21.066;2023-05-08T01:00:20;5.20;92.70
23475;DHT22;11910;52.086;21.066;2023-05-08T01:02:46;5.20;92.60
23475;DHT22;11910;52.086;21.066;2023-05-08T01:05:12;5.20;92.60
23475;DHT22;11910;52.086;21.066;2023-05-08T01:07:37;5.10;92.10
23475;DHT22;11910;52.086;21.066;2023-05-08T01:10:04;4.80;93.10
23475;DHT22;11910;52.086;21.066;2023-05-08T01:13:39;4.60;94.00
23475;DHT22;11910;52.086;21.066;2023-05-08T01:15:53;4.60;94.30
23475;DHT22;11910;52.086;21.066;2023-05-08T01:18:35;4.60;94.20
23475;DHT22;11910;52.086;21.066;2023-05-08T01:21:03;4.70;93.70
23475;DHT22;11910;52.086;21.066;2023-05-08T01:29:12;4.70;93.70
23475;DHT22;11910;52.086;21.066;2023-05-08T01:34:32;4.50;94.10
23475;DHT22;11910;52.086;21.066;2023-05-08T01:37:04;4.30;94.50
23475;DHT22;11910;52.086;21.066;2023-05-08T01:42:21;4.10;95.70
23475;DHT22;11910;52.086;21.066;2023-05-08T01:44:55;4.30;95.50
23475;DHT22;11910;52.086;21.066;2023-05-08T01:47:26;4.50;95.00
23475;DHT22;11910;52.086;21.066;2023-05-08T01:52:42;4.70;93.50
23475;DHT22;11910;52.086;21.066;2023-05-08T01:55:11;4.80;93.00
23475;DHT22;11910;52.086;21.066;2023-05-08T01:57:42;4.70;93.10
23475;DHT22;11910;52.086;21.066;2023-05-08T02:00:10;4.60;93.90
23475;DHT22;11910;52.086;21.066;2023-05-08T02:02:36;4.60;94.00
23475;DHT22;11910;52.086;21.066;2023-05-08T02:05:05;4.70;93.50
23475;DHT22;11910;52.086;21.066;2023-05-08T02:07:33;4.70;93.10
23475;DHT22;11910;52.086;21.066;2023-05-08T02:10:03;4.70;92.90
23475;DHT22;11910;52.086;21.066;2023-05-08T02:12:30;4.70;93.30
23475;DHT22;11910;52.086;21.066;2023-05-08T02:14:58;4.80;93.00
23475;DHT22;11910;52.086;21.066;2023-05-08T02:17:25;4.80;92.90
23475;DHT22;11910;52.086;21.066;2023-05-08T02:19:51;4.60;93.40
23475;DHT22;11910;52.086;21.066;2023-05-08T02:22:20;4.50;93.90
23475;DHT22;11910;52.086;21.066;2023-05-08T02:24:47;4.40;93.90
23475;DHT22;11910;52.086;21.066;2023-05-08T02:27:18;4.50;94.20
23475;DHT22;11910;52.086;21.066;2023-05-08T02:29:45;4.50;94.00
23475;DHT22;11910;52.086;21.066;2023-05-08T02:32:11;4.60;94.00
23475;DHT22;11910;52.086;21.066;2023-05-08T02:34:38;4.60;93.70
23475;DHT22;11910;52.086;21.066;2023-05-08T02:37:04;4.70;93.20
23475;DHT22;11910;52.086;21.066;2023-05-08T02:39:30;4.70;92.70
23475;DHT22;11910;52.086;21.066;2023-05-08T02:41:57;4.80;92.20
23475;DHT22;11910;52.086;21.066;2023-05-08T02:44:22;4.80;91.80
23475;DHT22;11910;52.086;21.066;2023-05-08T02:46:52;4.80;92.10
23475;DHT22;11910;52.086;21.066;2023-05-08T02:49:31;4.80;92.00
23475;DHT22;11910;52.086;21.066;2023-05-08T02:54:38;4.80;91.50
23475;DHT22;11910;52.086;21.066;2023-05-08T02:57:29;4.70;91.80
23475;DHT22;11910;52.086;21.066;2023-05-08T02:59:59;4.50;93.00
23475;DHT22;11910;52.086;21.066;2023-05-08T03:02:36;4.40;93.30
23475;DHT22;11910;52.086;21.066;2023-05-08T03:05:12;4.20;94.10
23475;DHT22;11910;52.086;21.066;2023-05-08T03:07:40;4.30;94.10
23475;DHT22;11910;52.086;21.066;2023-05-08T03:10:10;4.30;94.00
23475;DHT22;11910;52.086;21.066;2023-05-08T03:12:40;4.40;93.10
23475;DHT22;11910;52.086;21.066;2023-05-08T03:15:18;4.40;93.00
23475;DHT22;11910;52.086;21.066;2023-05-08T03:17:47;4.60;93.00
23475;DHT22;11910;52.086;21.066;2023-05-08T03:20:15;4.50;93.10
23475;DHT22;11910;52.086;21.066;2023-05-08T03:22:43;4.30;93.90
23475;DHT22;11910;52.086;21.066;2023-05-08T03:25:10;4.30;94.10
23475;DHT22;11910;52.086;21.066;2023-05-08T03:27:39;4.20;94.40
23475;DHT22;11910;52.086;21.066;2023-05-08T03:30:06;4.20;94.60
23475;DHT22;11910;52.086;21.066;2023-05-08T03:32:32;4.40;94.00
23475;DHT22;11910;52.086;21.066;2023-05-08T03:34:59;4.50;93.70
23475;DHT22;11910;52.086;21.066;2023-05-08T03:37:26;4.60;93.70
23475;DHT22;11910;52.086;21.066;2023-05-08T03:39:53;4.70;92.90
23475;DHT22;11910;52.086;21.066;2023-05-08T03:42:19;4.60;93.00
23475;DHT22;11910;52.086;21.066;2023-05-08T03:44:49;4.70;92.90
23475;DHT22;11910;52.086;21.066;2023-05-08T03:47:16;4.80;93.10
23475;DHT22;11910;52.086;21.066;2023-05-08T03:49:44;4.70;93.40
23475;DHT22;11910;52.086;21.066;2023-05-08T03:52:14;4.80;93.70
23475;DHT22;11910;52.086;21.066;2023-05-08T03:54:40;4.80;93.40
23475;DHT22;11910;52.086;21.066;2023-05-08T03:57:06;4.90;93.70
23475;DHT22;11910;52.086;21.066;2023-05-08T03:59:49;4.90;93.50
23475;DHT22;11910;52.086;21.066;2023-05-08T04:02:37;4.90;93.80
23475;DHT22;11910;52.086;21.066;2023-05-08T04:05:23;4.90;94.00
23475;DHT22;11910;52.086;21.066;2023-05-08T04:07:52;5.00;94.60
23475;DHT22;11910;52.086;21.066;2023-05-08T04:10:28;5.00;95.10
23475;DHT22;11910;52.086;21.066;2023-05-08T04:13:17;5.00;95.80
23475;DHT22;11910;52.086;21.066;2023-05-08T04:15:53;5.00;96.50
23475;DHT22;11910;52.086;21.066;2023-05-08T04:18:27;4.80;96.80
23475;DHT22;11910;52.086;21.066;2023-05-08T04:20:55;4.70;97.20
23475;DHT22;11910;52.086;21.066;2023-05-08T04:23:22;4.70;97.90
23475;DHT22;11910;52.086;21.066;2023-05-08T04:25:48;4.60;99.00
23475;DHT22;11910;52.086;21.066;2023-05-08T04:28:16;4.60;99.90
23475;DHT22;11910;52.086;21.066;2023-05-08T04:30:42;4.60;99.90
23475;DHT22;11910;52.086;21.066;2023-05-08T04:33:08;4.70;99.90
23475;DHT22;11910;52.086;21.066;2023-05-08T04:35:34;4.70;99.90
23475;DHT22;11910;52.086;21.066;2023-05-08T04:38:01;4.70;99.90
23475;DHT22;11910;52.086;21.066;2023-05-08T04:40:27;4.80;99.90
23475;DHT22;11910;52.086;21.066;2023-05-08T04:42:52;4.80;99.90
23475;DHT22;11910;52.086;21.066;2023-05-08T04:45:18;5.00;99.90
23475;DHT22;11910;52.086;21.066;2023-05-08T04:47:44;5.00;99.90
23475;DHT22;11910;52.086;21.066;2023-05-08T04:50:10;5.10;99.90
23475;DHT22;11910;52.086;21.066;2023-05-08T04:52:36;5.20;99.90
23475;DHT22;11910;52.086;21.066;2023-05-08T04:55:02;5.30;99.90
23475;DHT22;11910;52.086;21.066;2023-05-08T04:57:27;5.40;99.90
23475;DHT22;11910;52.086;21.066;2023-05-08T04:59:56;5.50;99.90
23475;DHT22;11910;52.086;21.066;2023-05-08T05:02:25;5.60;99.90
23475;DHT22;11910;52.086;21.066;2023-05-08T05:04:51;5.60;99.90
23475;DHT22;11910;52.086;21.066;2023-05-08T05:07:16;5.80;99.90
23475;DHT22;11910;52.086;21.066;2023-05-08T05:09:42;5.80;99.90
23475;DHT22;11910;52.086;21.066;2023-05-08T05:12:08;5.90;99.90
23475;DHT22;11910;52.086;21.066;2023-05-08T05:14:33;6.10;99.90
23475;DHT22;11910;52.086;21.066;2023-05-08T05:16:59;6.10;99.90
23475;DHT22;11910;52.086;21.066;2023-05-08T05:19:24;6.20;99.90
23475;DHT22;11910;52.086;21.066;2023-05-08T05:21:51;6.30;99.90
23475;DHT22;11910;52.086;21.066;2023-05-08T05:24:17;6.40;99.90
23475;DHT22;11910;52.086;21.066;2023-05-08T05:26:42;6.60;99.90
23475;DHT22;11910;52.086;21.066;2023-05-08T05:29:08;6.80;99.90
23475;DHT22;11910;52.086;21.066;2023-05-08T05:31:34;6.90;99.90
23475;DHT22;11910;52.086;21.066;2023-05-08T05:33:59;7.00;99.90
23475;DHT22;11910;52.086;21.066;2023-05-08T05:36:25;7.20;99.90
23475;DHT22;11910;52.086;21.066;2023-05-08T05:38:51;7.20;99.90
23475;DHT22;11910;52.086;21.066;2023-05-08T05:41:16;7.40;99.90
23475;DHT22;11910;52.086;21.066;2023-05-08T05:43:42;7.60;99.90
23475;DHT22;11910;52.086;21.066;2023-05-08T05:46:08;7.60;99.90
23475;DHT22;11910;52.086;21.066;2023-05-08T05:48:34;7.80;99.90
23475;DHT22;11910;52.086;21.066;2023-05-08T05:51:00;8.00;99.90
23475;DHT22;11910;52.086;21.066;2023-05-08T05:53:26;8.10;99.90
23475;DHT22;11910;52.086;21.066;2023-05-08T05:55:52;8.30;99.90
23475;DHT22;11910;52.086;21.066;2023-05-08T05:58:18;8.60;99.90
23475;DHT22;11910;52.086;21.066;2023-05-08T06:00:43;8.80;99.90
23475;DHT22;11910;52.086;21.066;2023-05-08T06:03:09;9.00;99.90
23475;DHT22;11910;52.086;21.066;2023-05-08T06:05:36;9.20;99.90
23475;DHT22;11910;52.086;21.066;2023-05-08T06:08:02;9.30;99.90
23475;DHT22;11910;52.086;21.066;2023-05-08T06:10:27;9.50;99.90
23475;DHT22;11910;52.086;21.066;2023-05-08T06:12:53;9.70;99.90
23475;DHT22;11910;52.086;21.066;2023-05-08T06:15:19;9.90;99.90
23475;DHT22;11910;52.086;21.066;2023-05-08T06:17:45;10.00;99.20
23475;DHT22;11910;52.086;21.066;2023-05-08T06:20:11;10.10;98.30
23475;DHT22;11910;52.086;21.066;2023-05-08T06:22:36;10.30;98.10
23475;DHT22;11910;52.086;21.066;2023-05-08T06:25:04;10.40;96.40
23475;DHT22;11910;52.086;21.066;2023-05-08T06:27:31;10.40;96.70
23475;DHT22;11910;52.086;21.066;2023-05-08T06:29:58;10.50;95.80
23475;DHT22;11910;52.086;21.066;2023-05-08T06:32:24;10.60;95.60
23475;DHT22;11910;52.086;21.066;2023-05-08T06:34:50;10.70;95.00
23475;DHT22;11910;52.086;21.066;2023-05-08T06:37:16;10.80;94.70
23475;DHT22;11910;52.086;21.066;2023-05-08T06:39:42;10.90;94.70
23475;DHT22;11910;52.086;21.066;2023-05-08T06:42:07;11.00;94.70
23475;DHT22;11910;52.086;21.066;2023-05-08T06:44:33;10.90;94.50
23475;DHT22;11910;52.086;21.066;2023-05-08T06:46:59;10.90;94.00
23475;DHT22;11910;52.086;21.066;2023-05-08T06:49:25;11.00;92.70
23475;DHT22;11910;52.086;21.066;2023-05-08T06:51:50;11.10;92.10
23475;DHT22;11910;52.086;21.066;2023-05-08T06:54:16;11.20;90.90
23475;DHT22;11910;52.086;21.066;2023-05-08T06:56:42;11.20;90.30
23475;DHT22;11910;52.086;21.066;2023-05-08T06:59:07;11.20;91.10
23475;DHT22;11910;52.086;21.066;2023-05-08T07:01:33;11.30;91.70
23475;DHT22;11910;52.086;21.066;2023-05-08T07:03:59;11.40;92.40
23475;DHT22;11910;52.086;21.066;2023-05-08T07:06:26;11.60;92.80
23475;DHT22;11910;52.086;21.066;2023-05-08T07:08:52;11.80;91.20
23475;DHT22;11910;52.086;21.066;2023-05-08T07:11:17;11.90;87.30
23475;DHT22;11910;52.086;21.066;2023-05-08T07:13:43;12.10;90.20
23475;DHT22;11910;52.086;21.066;2023-05-08T07:16:12;12.20;88.10
23475;DHT22;11910;52.086;21.066;2023-05-08T07:18:38;12.30;88.80
23475;DHT22;11910;52.086;21.066;2023-05-08T07:21:03;12.60;87.20
23475;DHT22;11910;52.086;21.066;2023-05-08T07:23:29;12.80;85.60
23475;DHT22;11910;52.086;21.066;2023-05-08T07:25:54;13.00;84.00
23475;DHT22;11910;52.086;21.066;2023-05-08T07:28:20;13.20;85.60
23475;DHT22;11910;52.086;21.066;2023-05-08T07:30:46;13.40;82.20
23475;DHT22;11910;52.086;21.066;2023-05-08T07:33:11;13.60;80.80
23475;DHT22;11910;52.086;21.066;2023-05-08T07:35:38;13.70;77.80
23475;DHT22;11910;52.086;21.066;2023-05-08T07:38:04;13.80;81.20
23475;DHT22;11910;52.086;21.066;2023-05-08T07:40:29;13.80;80.60
23475;DHT22;11910;52.086;21.066;2023-05-08T07:42:55;14.00;79.50
23475;DHT22;11910;52.086;21.066;2023-05-08T07:45:20;14.20;76.90
23475;DHT22;11910;52.086;21.066;2023-05-08T07:47:51;14.50;76.00
23475;DHT22;11910;52.086;21.066;2023-05-08T07:50:18;14.60;73.90
23475;DHT22;11910;52.086;21.066;2023-05-08T07:52:44;14.60;73.90
23475;DHT22;11910;52.086;21.066;2023-05-08T07:55:09;14.80;79.20
23475;DHT22;11910;52.086;21.066;2023-05-08T07:57:39;14.70;77.50
23475;DHT22;11910;52.086;21.066;2023-05-08T08:00:08;14.90;73.40
23475;DHT22;11910;52.086;21.066;2023-05-08T08:02:34;15.00;70.80
23475;DHT22;11910;52.086;21.066;2023-05-08T08:05:00;15.40;73.40
23475;DHT22;11910;52.086;21.066;2023-05-08T08:07:26;15.70;73.90
23475;DHT22;11910;52.086;21.066;2023-05-08T08:09:51;16.10;71.40
23475;DHT22;11910;52.086;21.066;2023-05-08T08:12:17;16.10;70.40
23475;DHT22;11910;52.086;21.066;2023-05-08T08:14:42;16.50;72.70
23475;DHT22;11910;52.086;21.066;2023-05-08T08:17:08;16.80;68.20
23475;DHT22;11910;52.086;21.066;2023-05-08T08:19:34;17.00;67.60
23475;DHT22;11910;52.086;21.066;2023-05-08T08:21:59;17.10;64.40
23475;DHT22;11910;52.086;21.066;2023-05-08T08:24:25;16.70;61.80
23475;DHT22;11910;52.086;21.066;2023-05-08T08:26:53;16.70;66.50
23475;DHT22;11910;52.086;21.066;2023-05-08T08:29:19;16.50;68.40
23475;DHT22;11910;52.086;21.066;2023-05-08T08:31:44;16.40;67.50
23475;DHT22;11910;52.086;21.066;2023-05-08T08:34:10;16.60;66.20
23475;DHT22;11910;52.086;21.066;2023-05-08T08:36:35;16.70;67.80
23475;DHT22;11910;52.086;21.066;2023-05-08T08:39:01;16.70;67.00
23475;DHT22;11910;52.086;21.066;2023-05-08T08:41:27;16.90;64.90
23475;DHT22;11910;52.086;21.066;2023-05-08T08:43:54;17.00;64.80
23475;DHT22;11910;52.086;21.066;2023-05-08T08:46:23;16.90;61.30
23475;DHT22;11910;52.086;21.066;2023-05-08T08:48:50;16.90;64.50
23475;DHT22;11910;52.086;21.066;2023-05-08T08:51:30;16.60;60.50
23475;DHT22;11910;52.086;21.066;2023-05-08T08:54:15;16.70;61.80
23475;DHT22;11910;52.086;21.066;2023-05-08T08:56:43;16.90;66.90
23475;DHT22;11910;52.086;21.066;2023-05-08T08:59:15;17.10;67.00
23475;DHT22;11910;52.086;21.066;2023-05-08T09:01:44;17.40;66.70
23475;DHT22;11910;52.086;21.066;2023-05-08T09:04:10;17.50;59.60
23475;DHT22;11910;52.086;21.066;2023-05-08T09:06:36;17.60;61.30
23475;DHT22;11910;52.086;21.066;2023-05-08T09:09:03;17.80;60.40
23475;DHT22;11910;52.086;21.066;2023-05-08T09:11:29;18.00;59.30
23475;DHT22;11910;52.086;21.066;2023-05-08T09:13:55;18.00;58.10
23475;DHT22;11910;52.086;21.066;2023-05-08T09:16:21;18.00;57.60
23475;DHT22;11910;52.086;21.066;2023-05-08T09:18:47;17.70;56.30
23475;DHT22;11910;52.086;21.066;2023-05-08T09:21:14;17.60;56.20
23475;DHT22;11910;52.086;21.066;2023-05-08T09:26:28;17.80;61.50
23475;DHT22;11910;52.086;21.066;2023-05-08T09:29:07;17.90;58.90
23475;DHT22;11910;52.086;21.066;2023-05-08T09:31:35;18.10;59.10
23475;DHT22;11910;52.086;21.066;2023-05-08T09:34:00;18.30;59.10
23475;DHT22;11910;52.086;21.066;2023-05-08T09:36:26;18.50;58.10
23475;DHT22;11910;52.086;21.066;2023-05-08T09:38:53;18.70;55.70
23475;DHT22;11910;52.086;21.066;2023-05-08T09:41:18;18.80;56.50
23475;DHT22;11910;52.086;21.066;2023-05-08T09:44:03;18.70;53.60
23475;DHT22;11910;52.086;21.066;2023-05-08T09:46:29;18.70;55.70
23475;DHT22;11910;52.086;21.066;2023-05-08T09:49:00;18.60;55.20
23475;DHT22;11910;52.086;21.066;2023-05-08T09:51:28;18.80;55.20
23475;DHT22;11910;52.086;21.066;2023-05-08T09:53:55;18.70;53.00
23475;DHT22;11910;52.086;21.066;2023-05-08T09:56:38;18.70;55.00
23475;DHT22;11910;52.086;21.066;2023-05-08T09:59:20;18.70;52.20
23475;DHT22;11910;52.086;21.066;2023-05-08T10:01:46;18.70;54.50
23475;DHT22;11910;52.086;21.066;2023-05-08T10:04:13;18.70;52.40
23475;DHT22;11910;52.086;21.066;2023-05-08T10:06:39;18.70;51.90
23475;DHT22;11910;52.086;21.066;2023-05-08T10:09:11;18.50;52.50
23475;DHT22;11910;52.086;21.066;2023-05-08T10:11:38;18.30;53.20
23475;DHT22;11910;52.086;21.066;2023-05-08T10:14:04;18.10;56.20
23475;DHT22;11910;52.086;21.066;2023-05-08T10:16:35;18.20;55.10
23475;DHT22;11910;52.086;21.066;2023-05-08T10:19:05;18.20;54.80
23475;DHT22;11910;52.086;21.066;2023-05-08T10:21:35;18.10;55.80
23475;DHT22;11910;52.086;21.066;2023-05-08T10:24:04;17.90;56.60
23475;DHT22;11910;52.086;21.066;2023-05-08T10:26:30;17.70;56.80
23475;DHT22;11910;52.086;21.066;2023-05-08T10:29:06;17.40;55.50
23475;DHT22;11910;52.086;21.066;2023-05-08T10:31:34;17.20;56.80
23475;DHT22;11910;52.086;21.066;2023-05-08T10:34:01;17.00;57.60
23475;DHT22;11910;52.086;21.066;2023-05-08T10:36:27;17.40;56.10
23475;DHT22;11910;52.086;21.066;2023-05-08T10:38:57;17.70;57.00
23475;DHT22;11910;52.086;21.066;2023-05-08T10:41:23;17.70;55.00
23475;DHT22;11910;52.086;21.066;2023-05-08T10:43:49;17.60;56.80
23475;DHT22;11910;52.086;21.066;2023-05-08T10:46:38;17.60;56.10
23475;DHT22;11910;52.086;21.066;2023-05-08T10:57:26;18.50;52.40
23475;DHT22;11910;52.086;21.066;2023-05-08T10:59:52;18.60;53.30
23475;DHT22;11910;52.086;21.066;2023-05-08T11:02:28;18.70;52.40
23475;DHT22;11910;52.086;21.066;2023-05-08T11:05:12;18.50;52.60
23475;DHT22;11910;52.086;21.066;2023-05-08T11:07:57;18.40;54.80
23475;DHT22;11910;52.086;21.066;2023-05-08T11:10:30;18.50;53.80
23475;DHT22;11910;52.086;21.066;2023-05-08T11:12:57;18.50;53.30
23475;DHT22;11910;52.086;21.066;2023-05-08T11:15:40;18.70;53.50
23475;DHT22;11910;52.086;21.066;2023-05-08T11:18:07;19.00;49.50
23475;DHT22;11910;52.086;21.066;2023-05-08T11:20:54;19.00;52.10
23475;DHT22;11910;52.086;21.066;2023-05-08T11:23:24;19.30;50.20
23475;DHT22;11910;52.086;21.066;2023-05-08T11:26:03;19.40;50.00
23475;DHT22;11910;52.086;21.066;2023-05-08T11:28:37;19.50;52.60
23475;DHT22;11910;52.086;21.066;2023-05-08T11:31:04;19.70;50.90
23475;DHT22;11910;52.086;21.066;2023-05-08T11:33:34;19.90;51.40
23475;DHT22;11910;52.086;21.066;2023-05-08T11:36:16;20.20;53.60
23475;DHT22;11910;52.086;21.066;2023-05-08T11:39:06;20.00;48.00
23475;DHT22;11910;52.086;21.066;2023-05-08T11:41:32;20.00;49.40
23475;DHT22;11910;52.086;21.066;2023-05-08T11:49:27;19.80;48.70
23475;DHT22;11910;52.086;21.066;2023-05-08T11:51:57;19.90;51.20
23475;DHT22;11910;52.086;21.066;2023-05-08T11:54:24;19.80;53.10
23475;DHT22;11910;52.086;21.066;2023-05-08T11:56:53;19.70;50.00
23475;DHT22;11910;52.086;21.066;2023-05-08T11:59:19;20.00;51.10
23475;DHT22;11910;52.086;21.066;2023-05-08T12:01:47;20.00;49.70
23475;DHT22;11910;52.086;21.066;2023-05-08T12:04:13;20.20;51.00
23475;DHT22;11910;52.086;21.066;2023-05-08T12:06:40;20.10;47.90
23475;DHT22;11910;52.086;21.066;2023-05-08T12:09:14;20.10;48.40
23475;DHT22;11910;52.086;21.066;2023-05-08T12:11:41;20.10;47.60
23475;DHT22;11910;52.086;21.066;2023-05-08T12:14:08;19.80;48.40
23475;DHT22;11910;52.086;21.066;2023-05-08T12:16:38;19.50;47.90
23475;DHT22;11910;52.086;21.066;2023-05-08T12:19:08;19.90;51.30
23475;DHT22;11910;52.086;21.066;2023-05-08T12:21:35;20.20;50.70
23475;DHT22;11910;52.086;21.066;2023-05-08T12:24:09;20.60;48.20
23475;DHT22;11910;52.086;21.066;2023-05-08T12:26:36;20.90;44.90
23475;DHT22;11910;52.086;21.066;2023-05-08T12:29:05;21.10;46.90
23475;DHT22;11910;52.086;21.066;2023-05-08T12:31:35;20.80;50.00
23475;DHT22;11910;52.086;21.066;2023-05-08T12:34:02;21.00;47.60
23475;DHT22;11910;52.086;21.066;2023-05-08T12:36:33;21.10;45.70
23475;DHT22;11910;52.086;21.066;2023-05-08T12:39:16;20.70;47.90
23475;DHT22;11910;52.086;21.066;2023-05-08T12:41:46;20.50;44.30
23475;DHT22;11910;52.086;21.066;2023-05-08T12:44:23;20.70;49.20
23475;DHT22;11910;52.086;21.066;2023-05-08T12:46:49;21.20;49.70
23475;DHT22;11910;52.086;21.066;2023-05-08T12:49:28;21.60;47.50
23475;DHT22;11910;52.086;21.066;2023-05-08T12:54:40;21.40;43.80
23475;DHT22;11910;52.086;21.066;2023-05-08T12:57:14;21.30;44.80
23475;DHT22;11910;52.086;21.066;2023-05-08T12:59:42;22.10;49.90
23475;DHT22;11910;52.086;21.066;2023-05-08T13:02:16;22.60;47.20
23475;DHT22;11910;52.086;21.066;2023-05-08T13:04:42;23.30;47.30
23475;DHT22;11910;52.086;21.066;2023-05-08T13:07:08;24.00;46.30
23475;DHT22;11910;52.086;21.066;2023-05-08T13:09:33;22.90;46.30
23475;DHT22;11910;52.086;21.066;2023-05-08T13:11:59;22.60;46.60
23475;DHT22;11910;52.086;21.066;2023-05-08T13:14:25;23.30;47.10
23475;DHT22;11910;52.086;21.066;2023-05-08T13:16:50;22.80;46.80
23475;DHT22;11910;52.086;21.066;2023-05-08T13:19:16;23.20;46.30
23475;DHT22;11910;52.086;21.066;2023-05-08T13:21:43;23.90;45.50
23475;DHT22;11910;52.086;21.066;2023-05-08T13:24:12;24.10;44.50
23475;DHT22;11910;52.086;21.066;2023-05-08T13:26:39;24.70;44.20
23475;DHT22;11910;52.086;21.066;2023-05-08T13:29:04;25.40;44.30
23475;DHT22;11910;52.086;21.066;2023-05-08T13:31:30;25.90;41.90
23475;DHT22;11910;52.086;21.066;2023-05-08T13:33:56;26.40;41.10
23475;DHT22;11910;52.086;21.066;2023-05-08T13:36:22;25.30;39.40
23475;DHT22;11910;52.086;21.066;2023-05-08T13:38:48;25.70;38.80
23475;DHT22;11910;52.086;21.066;2023-05-08T13:41:13;26.00;38.30
23475;DHT22;11910;52.086;21.066;2023-05-08T13:43:39;26.50;39.40
23475;DHT22;11910;52.086;21.066;2023-05-08T13:46:05;26.80;37.70
23475;DHT22;11910;52.086;21.066;2023-05-08T13:48:31;27.30;38.20
23475;DHT22;11910;52.086;21.066;2023-05-08T13:50:56;26.00;39.80
23475;DHT22;11910;52.086;21.066;2023-05-08T13:53:22;25.00;38.70
23475;DHT22;11910;52.086;21.066;2023-05-08T13:55:47;25.90;39.50
23475;DHT22;11910;52.086;21.066;2023-05-08T13:58:13;26.40;37.50
23475;DHT22;11910;52.086;21.066;2023-05-08T14:00:39;27.00;36.10
23475;DHT22;11910;52.086;21.066;2023-05-08T14:03:04;27.00;34.80
23475;DHT22;11910;52.086;21.066;2023-05-08T14:05:30;27.60;35.90
23475;DHT22;11910;52.086;21.066;2023-05-08T14:07:55;28.20;35.80
23475;DHT22;11910;52.086;21.066;2023-05-08T14:10:21;28.30;35.90
23475;DHT22;11910;52.086;21.066;2023-05-08T14:12:47;28.10;34.60
23475;DHT22;11910;52.086;21.066;2023-05-08T14:15:12;28.10;34.30
23475;DHT22;11910;52.086;21.066;2023-05-08T14:17:38;28.20;34.90
23475;DHT22;11910;52.086;21.066;2023-05-08T14:20:04;28.00;35.90
23475;DHT22;11910;52.086;21.066;2023-05-08T14:22:30;28.10;34.80
23475;DHT22;11910;52.086;21.066;2023-05-08T14:24:55;28.70;32.90
23475;DHT22;11910;52.086;21.066;2023-05-08T14:27:21;29.00;32.90
23475;DHT22;11910;52.086;21.066;2023-05-08T14:29:46;29.30;32.60
23475;DHT22;11910;52.086;21.066;2023-05-08T14:32:12;29.40;31.80
23475;DHT22;11910;52.086;21.066;2023-05-08T14:34:37;28.40;31.60
23475;DHT22;11910;52.086;21.066;2023-05-08T14:37:03;28.90;33.50
23475;DHT22;11910;52.086;21.066;2023-05-08T14:39:29;28.90;33.80
23475;DHT22;11910;52.086;21.066;2023-05-08T14:41:55;29.20;33.60
23475;DHT22;11910;52.086;21.066;2023-05-08T14:44:20;29.60;33.40
23475;DHT22;11910;52.086;21.066;2023-05-08T14:46:46;28.00;34.50
23475;DHT22;11910;52.086;21.066;2023-05-08T14:49:11;28.40;34.70
23475;DHT22;11910;52.086;21.066;2023-05-08T14:51:37;27.10;33.00
23475;DHT22;11910;52.086;21.066;2023-05-08T14:54:02;25.70;34.20
23475;DHT22;11910;52.086;21.066;2023-05-08T14:56:28;25.00;34.80
23475;DHT22;11910;52.086;21.066;2023-05-08T14:58:54;25.40;35.00
23475;DHT22;11910;52.086;21.066;2023-05-08T15:01:20;26.00;35.90
23475;DHT22;11910;52.086;21.066;2023-05-08T15:03:47;25.80;35.80
23475;DHT22;11910;52.086;21.066;2023-05-08T15:06:21;26.80;33.90
23475;DHT22;11910;52.086;21.066;2023-05-08T15:08:47;27.50;34.40
23475;DHT22;11910;52.086;21.066;2023-05-08T15:11:13;27.90;33.50
23475;DHT22;11910;52.086;21.066;2023-05-08T15:13:38;28.50;33.50
23475;DHT22;11910;52.086;21.066;2023-05-08T15:16:05;28.80;32.80
23475;DHT22;11910;52.086;21.066;2023-05-08T15:18:30;29.00;32.90
23475;DHT22;11910;52.086;21.066;2023-05-08T15:20:56;28.90;31.30
23475;DHT22;11910;52.086;21.066;2023-05-08T15:23:22;29.00;33.30
23475;DHT22;11910;52.086;21.066;2023-05-08T15:25:48;28.90;33.40
23475;DHT22;11910;52.086;21.066;2023-05-08T15:28:14;28.50;34.00
23475;DHT22;11910;52.086;21.066;2023-05-08T15:30:40;26.80;34.50
23475;DHT22;11910;52.086;21.066;2023-05-08T15:33:05;25.40;35.00
23475;DHT22;11910;52.086;21.066;2023-05-08T15:35:31;25.50;34.90
23475;DHT22;11910;52.086;21.066;2023-05-08T15:37:56;24.70;36.00
23475;DHT22;11910;52.086;21.066;2023-05-08T15:40:22;23.50;37.00
23475;DHT22;11910;52.086;21.066;2023-05-08T15:42:47;22.50;39.20
23475;DHT22;11910;52.086;21.066;2023-05-08T15:45:13;21.90;40.60
23475;DHT22;11910;52.086;21.066;2023-05-08T15:47:40;21.20;42.90
23475;DHT22;11910;52.086;21.066;2023-05-08T15:50:06;22.50;40.60
23475;DHT22;11910;52.086;21.066;2023-05-08T15:52:31;23.20;39.70
23475;DHT22;11910;52.086;21.066;2023-05-08T15:54:57;23.70;38.70
23475;DHT22;11910;52.086;21.066;2023-05-08T15:57:22;24.10;38.10
23475;DHT22;11910;52.086;21.066;2023-05-08T15:59:51;24.70;38.10
23475;DHT22;11910;52.086;21.066;2023-05-08T16:02:17;25.30;36.80
23475;DHT22;11910;52.086;21.066;2023-05-08T16:04:42;25.10;36.70